createdAt,value
2018-04-07T00:00:12.122Z,37.25
2018-04-07T00:02:40.498Z,47.28
2018-04-07T00:05:08.814Z,39.35
2018-04-07T00:07:37.142Z,53.08
2018-04-07T00:10:06.520Z,46.90
2018-04-07T00:12:34.852Z,54.58
2018-04-07T00:15:03.160Z,60.83
2018-04-07T00:17:32.607Z,59.38
2018-04-07T00:20:00.912Z,62.95
2018-04-07T00:22:29.261Z,60.00
2018-04-07T00:24:59.179Z,64.07
2018-04-07T00:27:27.530Z,46.55
2018-04-07T00:29:55.910Z,57.80
2018-04-07T00:32:24.504Z,70.07
2018-04-07T00:34:52.804Z,84.50
2018-04-07T00:37:21.113Z,73.25
2018-04-07T00:39:50.817Z,66.68
2018-04-07T00:42:19.212Z,67.85
2018-04-07T00:44:47.507Z,60.80
2018-04-07T00:47:15.820Z,60.00
2018-04-07T00:49:45.109Z,56.78
2018-04-07T00:52:17.490Z,60.88
2018-04-07T00:54:46.751Z,71.18
2018-04-07T00:57:17.437Z,73.32
2018-04-07T00:59:45.759Z,77.10
2018-04-07T01:02:18.217Z,78.47
2018-04-07T01:04:46.520Z,77.82
2018-04-07T01:07:14.822Z,73.72
2018-04-07T01:09:44.085Z,63.63
2018-04-07T01:12:13.156Z,79.15
2018-04-07T01:14:41.472Z,59.38
2018-04-07T01:17:10.487Z,67.85
2018-04-07T01:19:39.584Z,76.82
2018-04-07T01:22:08.643Z,91.55
2018-04-07T01:24:38.047Z,108.03
2018-04-07T01:27:06.337Z,88.93
2018-04-07T01:29:34.646Z,111.85
2018-04-07T01:32:04.461Z,104.45
2018-04-07T01:34:33.556Z,86.53
2018-04-07T01:37:01.879Z,100.82
2018-04-07T01:39:30.591Z,87.10
2018-04-07T01:41:58.946Z,94.87
2018-04-07T01:44:27.262Z,92.68
2018-04-07T01:46:56.411Z,117.72
2018-04-07T01:49:24.778Z,134.55
2018-04-07T01:51:53.076Z,128.80
2018-04-07T01:54:22.350Z,124.78
2018-04-07T01:56:52.989Z,128.25
2018-04-07T01:59:22.850Z,116.90
2018-04-07T02:01:52.370Z,128.60
2018-04-07T02:04:20.676Z,90.25
2018-04-07T02:06:48.957Z,82.72
2018-04-07T02:09:18.089Z,107.10
2018-04-07T02:11:47.165Z,87.10
2018-04-07T02:14:15.970Z,117.32
2018-04-07T02:16:46.568Z,127.93
2018-04-07T02:19:14.921Z,129.68
2018-04-07T02:21:43.259Z,109.47
2018-04-07T02:24:12.762Z,125.55
2018-04-07T02:26:41.084Z,102.07
2018-04-07T02:29:10.448Z,101.05
2018-04-07T02:31:39.688Z,102.15
2018-04-07T02:34:08.769Z,84.78
2018-04-07T02:36:37.060Z,91.63
2018-04-07T02:39:06.612Z,108.60
2018-04-07T02:41:34.895Z,103.82
2018-04-07T02:44:03.181Z,134.77
2018-04-07T02:46:31.925Z,99.62
2018-04-07T02:49:00.232Z,114.55
2018-04-07T02:51:28.561Z,108.32
2018-04-07T02:53:58.136Z,129.00
2018-04-07T02:56:26.442Z,103.10
2018-04-07T02:58:54.923Z,88.70
2018-04-07T03:01:26.900Z,84.07
2018-04-07T03:03:56.240Z,90.97
2018-04-07T03:06:25.322Z,84.70
2018-04-07T03:08:53.614Z,82.45
2018-04-07T03:11:22.825Z,96.00
2018-04-07T03:13:51.898Z,106.57
2018-04-07T03:16:20.254Z,132.80
2018-04-07T03:18:50.261Z,113.25
2018-04-07T03:21:18.566Z,129.70
2018-04-07T03:23:46.873Z,111.12
2018-04-07T03:26:15.994Z,113.80
2018-04-07T03:28:45.083Z,111.90
2018-04-07T03:31:13.380Z,105.43
2018-04-07T03:33:44.209Z,115.20
2018-04-07T03:36:12.502Z,120.65
2018-04-07T03:38:40.799Z,98.25
2018-04-07T03:41:10.376Z,101.38
2018-04-07T03:43:38.674Z,113.50
2018-04-07T03:46:07.735Z,122.22
2018-04-07T03:48:37.891Z,117.57
2018-04-07T03:51:06.942Z,101.30
2018-04-07T03:53:35.245Z,93.30
2018-04-07T03:56:05.236Z,118.13
2018-04-07T03:58:33.685Z,116.12
2018-04-07T04:01:02.747Z,125.43
2018-04-07T04:03:32.987Z,88.37
2018-04-07T04:06:01.278Z,92.50
2018-04-07T04:08:29.606Z,113.10
2018-04-07T04:10:58.763Z,99.22
2018-04-07T04:13:27.826Z,96.03
2018-04-07T04:15:56.968Z,117.35
2018-04-07T04:18:26.906Z,104.03
2018-04-07T04:20:55.212Z,126.30
2018-04-07T04:23:23.515Z,132.45
2018-04-07T04:25:52.547Z,134.75
2018-04-07T04:28:21.635Z,132.30
2018-04-07T04:30:49.926Z,109.32
2018-04-07T04:33:19.839Z,87.70
2018-04-07T04:35:48.135Z,102.97
2018-04-07T04:38:16.432Z,106.95
2018-04-07T04:40:45.183Z,85.43
2018-04-07T04:43:13.468Z,76.57
2018-04-07T04:45:53.092Z,80.97
2018-04-07T04:48:26.390Z,82.68
2018-04-07T04:50:55.614Z,101.65
2018-04-07T04:53:24.704Z,102.25
2018-04-07T04:55:53.000Z,89.72
2018-04-07T04:58:23.156Z,104.03
2018-04-07T05:00:51.441Z,98.75
2018-04-07T05:03:19.777Z,81.72
2018-04-07T05:05:50.238Z,88.72
2018-04-07T05:08:18.575Z,113.20
2018-04-07T05:10:46.915Z,116.90
2018-04-07T05:13:16.067Z,115.72
2018-04-07T05:15:44.373Z,110.35
2018-04-07T05:18:13.465Z,94.70
2018-04-07T05:20:43.209Z,90.30
2018-04-07T05:23:11.515Z,103.30
2018-04-07T05:25:39.814Z,100.93
2018-04-07T05:28:08.173Z,84.85
2018-04-07T05:30:37.314Z,76.85
2018-04-07T05:33:05.622Z,73.37
2018-04-07T05:35:34.676Z,68.75
2018-04-07T05:38:02.982Z,53.80
2018-04-07T05:40:32.907Z,45.45
2018-04-07T05:43:01.988Z,57.08
2018-04-07T05:45:30.282Z,69.82
2018-04-07T05:47:59.589Z,57.70
2018-04-07T05:50:28.644Z,66.03
2018-04-07T05:52:56.974Z,57.67
2018-04-07T05:55:26.869Z,59.45
2018-04-07T05:57:55.147Z,65.25
2018-04-07T06:00:23.481Z,65.03
2018-04-07T06:02:52.655Z,59.05
2018-04-07T06:05:21.729Z,50.17
2018-04-07T06:07:52.911Z,49.03
2018-04-07T06:10:21.234Z,46.08
2018-04-07T06:12:49.527Z,43.13
2018-04-07T06:15:18.445Z,47.28
2018-04-07T06:17:46.745Z,36.00
2018-04-07T06:20:15.789Z,48.28
2018-04-07T06:22:45.001Z,41.00
2018-04-07T06:25:13.303Z,43.63
2018-04-07T06:27:41.664Z,49.40
2018-04-07T06:30:11.454Z,45.90
2018-04-07T06:32:39.907Z,48.03
2018-04-07T06:35:08.967Z,44.80
2018-04-07T06:37:38.285Z,39.20
2018-04-07T06:40:06.582Z,46.85
2018-04-07T06:42:35.671Z,46.90
2018-04-07T06:45:03.981Z,45.30
2018-04-07T06:47:34.244Z,39.97
2018-04-07T06:50:02.739Z,38.03
2018-04-07T06:52:31.101Z,39.30
2018-04-07T06:55:00.376Z,37.65
2018-04-07T06:57:29.499Z,45.63
2018-04-07T06:59:57.845Z,40.92
2018-04-07T07:02:27.771Z,34.28
2018-04-07T07:04:56.844Z,31.08
2018-04-07T07:07:26.574Z,34.95
2018-04-07T07:09:57.735Z,34.70
2018-04-07T07:12:26.095Z,27.83
2018-04-07T07:14:54.395Z,27.33
2018-04-07T07:17:24.349Z,42.45
2018-04-07T07:19:54.604Z,99.62
2018-04-07T07:22:25.394Z,55.70
2018-04-07T07:24:54.786Z,32.42
2018-04-07T07:27:23.333Z,26.50
2018-04-07T07:29:52.678Z,28.57
2018-04-07T07:32:21.222Z,25.30
2018-04-07T07:34:50.375Z,25.97
2018-04-07T07:37:19.978Z,20.70
2018-04-07T07:39:49.274Z,26.43
2018-04-07T07:42:18.546Z,20.63
2018-04-07T07:44:47.286Z,20.00
2018-04-07T07:47:16.166Z,26.73
2018-04-07T07:49:46.363Z,19.77
2018-04-07T07:52:15.470Z,17.27
2018-04-07T07:54:45.589Z,15.37
2018-04-07T07:57:16.470Z,23.00
2018-04-07T07:59:44.786Z,17.17
2018-04-07T08:02:25.416Z,15.33
2018-04-07T08:04:54.831Z,20.53
2018-04-07T08:07:23.435Z,15.17
2018-04-07T08:09:52.542Z,14.47
2018-04-07T08:12:24.233Z,14.80
2018-04-07T08:14:54.754Z,17.40
2018-04-07T08:17:25.571Z,14.33
2018-04-07T08:19:57.369Z,14.20
2018-04-07T08:22:27.821Z,13.17
2018-04-07T08:24:56.577Z,12.80
2018-04-07T08:27:27.530Z,11.90
2018-04-07T08:29:59.110Z,14.23
2018-04-07T08:32:27.692Z,13.10
2018-04-07T08:34:56.418Z,11.73
2018-04-07T08:37:27.103Z,14.07
2018-04-07T08:39:55.894Z,13.70
2018-04-07T08:42:28.361Z,13.40
2018-04-07T08:45:00.272Z,14.10
2018-04-07T08:47:32.226Z,14.83
2018-04-07T08:50:08.430Z,11.67
2018-04-07T08:52:37.892Z,12.93
2018-04-07T08:55:07.352Z,10.60
2018-04-07T08:57:46.310Z,12.20
2018-04-07T09:00:23.880Z,9.53
2018-04-07T09:02:54.142Z,11.20
2018-04-07T09:05:27.519Z,18.07
2018-04-07T09:07:57.767Z,9.80
2018-04-07T09:10:27.887Z,11.30
2018-04-07T09:12:58.464Z,10.77
2018-04-07T09:15:30.460Z,9.90
2018-04-07T09:18:01.415Z,10.90
2018-04-07T09:20:30.730Z,11.20
2018-04-07T09:23:00.571Z,11.80
2018-04-07T09:25:29.662Z,10.77
2018-04-07T09:27:58.773Z,14.83
2018-04-07T09:30:29.394Z,11.33
2018-04-07T09:32:57.725Z,11.60
2018-04-07T09:35:26.018Z,10.80
2018-04-07T09:37:56.589Z,12.50
2018-04-07T09:40:27.557Z,12.83
2018-04-07T09:42:56.530Z,12.93
2018-04-07T09:45:25.629Z,13.90
2018-04-07T09:47:54.731Z,15.20
2018-04-07T09:50:25.357Z,15.10
2018-04-07T09:53:01.254Z,13.73
2018-04-07T09:55:30.627Z,15.17
2018-04-07T09:57:59.697Z,15.07
2018-04-07T10:00:28.029Z,13.47
2018-04-07T10:03:02.491Z,11.63
2018-04-07T10:05:30.810Z,13.27
2018-04-07T10:07:59.914Z,12.23
2018-04-07T10:10:28.904Z,12.53
2018-04-07T10:12:59.512Z,12.50
2018-04-07T10:15:27.833Z,12.30
2018-04-07T10:17:57.638Z,14.77
2018-04-07T10:20:26.818Z,12.20
2018-04-07T10:22:55.903Z,12.03
2018-04-07T10:25:28.889Z,11.30
2018-04-07T10:27:57.215Z,16.13
2018-04-07T10:30:26.292Z,12.40
2018-04-07T10:32:55.337Z,11.77
2018-04-07T10:35:23.663Z,10.30
2018-04-07T10:37:51.951Z,11.93
2018-04-07T10:40:20.663Z,9.37
2018-04-07T10:42:49.715Z,10.57
2018-04-07T10:45:18.220Z,9.53
2018-04-07T10:47:48.551Z,10.90
2018-04-07T10:50:16.836Z,10.37
2018-04-07T10:52:45.217Z,11.63
2018-04-07T10:55:14.218Z,10.13
2018-04-07T10:57:43.982Z,10.47
2018-04-07T11:00:13.749Z,12.63
2018-04-07T11:02:45.500Z,10.13
2018-04-07T11:05:13.842Z,13.70
2018-04-07T11:07:42.159Z,12.27
2018-04-07T11:10:11.267Z,10.77
2018-04-07T11:12:39.561Z,10.57
2018-04-07T11:15:09.578Z,11.10
2018-04-07T11:17:39.077Z,11.03
2018-04-07T11:20:07.387Z,10.30
2018-04-07T11:22:35.718Z,12.40
2018-04-07T11:25:04.859Z,10.87
2018-04-07T11:27:33.165Z,9.90
2018-04-07T11:30:02.218Z,11.97
2018-04-07T11:32:31.256Z,11.23
2018-04-07T11:35:00.602Z,11.10
2018-04-07T11:37:29.049Z,11.07
2018-04-07T11:40:01.083Z,10.40
2018-04-07T11:42:30.572Z,11.53
2018-04-07T11:45:00.013Z,11.73
2018-04-07T11:47:29.078Z,11.20
2018-04-07T11:49:57.444Z,11.00
2018-04-07T11:52:26.592Z,10.40
2018-04-07T11:54:54.875Z,10.63
2018-04-07T11:57:23.163Z,11.20
2018-04-07T11:59:52.912Z,9.93
2018-04-07T12:02:21.229Z,9.73
2018-04-07T12:04:49.514Z,10.37
2018-04-07T12:07:18.397Z,10.37
2018-04-07T12:09:46.713Z,10.20
2018-04-07T12:12:15.833Z,10.30
2018-04-07T12:14:45.497Z,10.50
2018-04-07T12:17:20.329Z,11.10
2018-04-07T12:19:49.537Z,11.83
2018-04-07T12:22:17.835Z,10.07
2018-04-07T12:24:46.135Z,10.30
2018-04-07T12:27:23.059Z,11.00
2018-04-07T12:29:51.367Z,11.90
2018-04-07T12:32:21.105Z,12.30
2018-04-07T12:34:49.467Z,12.40
2018-04-07T12:37:17.790Z,12.67
2018-04-07T12:39:47.166Z,12.30
2018-04-07T12:42:16.304Z,12.17
2018-04-07T12:44:45.654Z,12.30
2018-04-07T12:47:14.111Z,14.33
2018-04-07T12:49:51.401Z,11.57
2018-04-07T12:52:27.192Z,12.20
2018-04-07T12:54:56.703Z,12.20
2018-04-07T12:57:27.683Z,13.57
2018-04-07T12:59:56.704Z,11.33
2018-04-07T13:02:27.514Z,13.80
2018-04-07T13:04:55.882Z,11.90
2018-04-07T13:07:24.253Z,11.67
2018-04-07T13:09:54.159Z,11.77
2018-04-07T13:12:22.474Z,12.40
2018-04-07T13:14:50.831Z,12.27
2018-04-07T13:17:20.206Z,12.90
2018-04-07T13:19:49.744Z,17.30
2018-04-07T13:22:18.313Z,17.20
2018-04-07T13:24:47.987Z,17.40
2018-04-07T13:27:16.281Z,16.47
2018-04-07T13:29:44.575Z,17.30
2018-04-07T13:32:13.916Z,16.77
2018-04-07T13:34:42.269Z,15.63
2018-04-07T13:37:10.597Z,16.93
2018-04-07T13:39:39.885Z,16.63
2018-04-07T13:42:08.963Z,17.83
2018-04-07T13:44:37.323Z,18.97
2018-04-07T13:47:06.364Z,17.40
2018-04-07T13:49:36.671Z,17.00
2018-04-07T13:52:05.157Z,16.73
2018-04-07T13:54:34.609Z,16.83
2018-04-07T13:57:02.909Z,17.90
2018-04-07T13:59:31.282Z,17.20
2018-04-07T14:02:00.360Z,18.70
2018-04-07T14:04:30.258Z,17.73
2018-04-07T14:07:00.857Z,20.37
2018-04-07T14:09:30.974Z,18.17
2018-04-07T14:11:59.304Z,18.03
2018-04-07T14:14:28.366Z,17.90
2018-04-07T14:16:57.725Z,16.20
2018-04-07T14:19:26.084Z,16.80
2018-04-07T14:21:56.261Z,17.50
2018-04-07T14:24:25.741Z,16.70
2018-04-07T14:26:54.140Z,17.43
2018-04-07T14:29:23.002Z,16.93
2018-04-07T14:31:52.779Z,18.00
2018-04-07T14:34:21.445Z,17.67
2018-04-07T14:36:49.754Z,19.17
2018-04-07T14:39:19.008Z,16.70
2018-04-07T14:41:47.353Z,17.80
2018-04-07T14:44:15.907Z,18.73
2018-04-07T14:46:45.429Z,17.13
2018-04-07T14:49:13.757Z,18.37
2018-04-07T14:51:43.912Z,18.87
2018-04-07T14:54:13.569Z,18.50
2018-04-07T14:56:41.924Z,17.17
2018-04-07T14:59:10.259Z,15.20
2018-04-07T15:01:39.960Z,15.57
2018-04-07T15:04:08.250Z,17.13
2018-04-07T15:06:37.429Z,16.40
2018-04-07T15:09:06.632Z,16.17
2018-04-07T15:11:35.950Z,16.67
2018-04-07T15:14:04.259Z,14.60
2018-04-07T15:16:32.659Z,16.17
2018-04-07T15:19:01.526Z,19.00
2018-04-07T15:21:31.411Z,17.30
2018-04-07T15:24:00.596Z,16.50
2018-04-07T15:26:30.292Z,15.57
2018-04-07T15:28:58.584Z,17.17
2018-04-07T15:31:27.496Z,14.47
2018-04-07T15:33:56.325Z,19.40
2018-04-07T15:36:24.843Z,17.20
2018-04-07T15:38:53.529Z,14.03
2018-04-07T15:41:23.327Z,15.93
2018-04-07T15:43:52.685Z,16.13
2018-04-07T15:46:21.111Z,15.60
2018-04-07T15:48:51.165Z,15.10
2018-04-07T15:51:20.470Z,15.20
2018-04-07T15:53:49.676Z,15.53
2018-04-07T15:56:19.010Z,18.30
2018-04-07T15:58:47.366Z,14.90
2018-04-07T16:01:16.547Z,14.90
2018-04-07T16:03:46.736Z,13.87
2018-04-07T16:06:15.799Z,22.10
2018-04-07T16:08:44.973Z,13.53
2018-04-07T16:11:14.027Z,14.87
2018-04-07T16:13:42.336Z,15.73
2018-04-07T16:16:10.698Z,14.83
2018-04-07T16:18:39.610Z,13.43
2018-04-07T16:21:07.923Z,15.37
2018-04-07T16:23:37.933Z,14.83
2018-04-07T16:26:07.127Z,13.67
2018-04-07T16:28:36.186Z,14.43
2018-04-07T16:31:04.644Z,14.03
2018-04-07T16:33:33.566Z,14.00
2018-04-07T16:36:02.001Z,13.77
2018-04-07T16:38:30.762Z,21.37
2018-04-07T16:41:00.596Z,13.73
2018-04-07T16:43:29.293Z,15.47
2018-04-07T16:45:58.617Z,16.27
2018-04-07T16:48:27.827Z,15.63
2018-04-07T16:50:56.199Z,17.80
2018-04-07T16:53:24.865Z,17.43
2018-04-07T16:55:54.041Z,18.53
2018-04-07T16:58:23.130Z,17.00
2018-04-07T17:00:51.495Z,21.80
2018-04-07T17:03:21.123Z,23.40
2018-04-07T17:05:50.303Z,15.83
2018-04-07T17:08:18.736Z,18.37
2018-04-07T17:10:48.158Z,26.20
2018-04-07T17:13:20.094Z,14.50
2018-04-07T17:15:49.240Z,17.40
2018-04-07T17:18:17.806Z,16.83
2018-04-07T17:20:47.191Z,14.57
2018-04-07T17:23:16.016Z,13.50
2018-04-07T17:25:45.438Z,17.77
2018-04-07T17:28:14.765Z,19.77
2018-04-07T17:30:43.144Z,17.13
2018-04-07T17:33:12.435Z,13.30
2018-04-07T17:35:41.783Z,16.80
2018-04-07T17:38:10.248Z,13.03
2018-04-07T17:40:39.495Z,17.00
2018-04-07T17:43:08.711Z,15.50
2018-04-07T17:45:37.026Z,15.00
2018-04-07T17:48:05.533Z,24.10
2018-04-07T17:50:35.298Z,17.27
2018-04-07T17:53:03.658Z,17.63
2018-04-07T17:55:32.775Z,18.00
2018-04-07T17:58:02.299Z,16.57
2018-04-07T18:00:30.670Z,28.93
2018-04-07T18:02:59.595Z,16.73
2018-04-07T18:05:29.212Z,19.73
2018-04-07T18:07:57.716Z,16.40
2018-04-07T18:10:26.232Z,18.10
2018-04-07T18:12:56.039Z,17.83
2018-04-07T18:15:24.834Z,15.50
2018-04-07T18:17:53.345Z,23.23
2018-04-07T18:20:23.532Z,17.97
2018-04-07T18:22:52.057Z,18.37
2018-04-07T18:25:20.509Z,22.00
2018-04-07T18:27:50.749Z,18.17
2018-04-07T18:30:19.358Z,18.70
2018-04-07T18:32:47.699Z,17.43
2018-04-07T18:35:16.119Z,21.00
2018-04-07T18:37:46.239Z,18.63
2018-04-07T18:40:14.723Z,18.60
2018-04-07T18:42:43.450Z,27.17
2018-04-07T18:45:13.205Z,32.50
2018-04-07T18:47:42.874Z,20.13
2018-04-07T18:50:11.940Z,15.40
2018-04-07T18:52:42.046Z,19.53
2018-04-07T18:55:17.446Z,16.63
2018-04-07T18:57:48.236Z,21.90
2018-04-07T19:00:16.669Z,15.53
2018-04-07T19:02:45.012Z,22.30
2018-04-07T19:05:14.074Z,16.90
2018-04-07T19:07:42.743Z,27.03
2018-04-07T19:10:11.620Z,24.70
2018-04-07T19:12:40.928Z,30.63
2018-04-07T19:15:09.552Z,38.40
2018-04-07T19:17:39.161Z,25.27
2018-04-07T19:20:09.447Z,19.40
2018-04-07T19:22:37.870Z,38.77
2018-04-07T19:25:07.150Z,38.37
2018-04-07T19:27:37.295Z,39.53
2018-04-07T19:30:07.729Z,20.30
2018-04-07T19:32:36.266Z,27.77
2018-04-07T19:35:05.006Z,23.50
2018-04-07T19:37:34.415Z,26.87
2018-04-07T19:40:03.115Z,25.17
2018-04-07T19:42:33.598Z,22.10
2018-04-07T19:45:02.948Z,23.97
2018-04-07T19:47:32.277Z,17.50
2018-04-07T19:50:02.528Z,19.23
2018-04-07T19:52:37.923Z,17.60
2018-04-07T19:55:08.351Z,15.80
2018-04-07T19:57:38.024Z,19.80
2018-04-07T20:00:07.414Z,18.87
2018-04-07T20:02:36.653Z,19.00
2018-04-07T20:05:06.386Z,18.70
2018-04-07T20:07:42.771Z,21.93
2018-04-07T20:10:12.124Z,16.50
2018-04-07T20:12:43.092Z,16.43
2018-04-07T20:15:12.632Z,17.73
2018-04-07T20:17:42.110Z,20.30
2018-04-07T20:20:13.887Z,17.77
2018-04-07T20:22:45.372Z,15.70
2018-04-07T20:25:15.863Z,16.87
2018-04-07T20:27:46.421Z,22.10
2018-04-07T20:30:17.244Z,27.80
2018-04-07T20:32:47.796Z,17.53
2018-04-07T20:35:16.482Z,17.50
2018-04-07T20:37:47.052Z,19.83
2018-04-07T20:40:18.416Z,17.77
2018-04-07T20:43:03.815Z,22.20
2018-04-07T20:45:33.833Z,20.27
2018-04-07T20:48:06.211Z,21.13
2018-04-07T20:50:35.672Z,23.07
2018-04-07T20:53:21.406Z,20.97
2018-04-07T20:55:50.811Z,21.20
2018-04-07T20:58:21.792Z,19.03
2018-04-07T21:00:52.004Z,22.07
2018-04-07T21:06:19.123Z,22.90
2018-04-07T21:08:49.013Z,19.33
2018-04-07T21:11:23.159Z,28.00
2018-04-07T21:13:54.206Z,21.47
2018-04-07T21:16:29.852Z,21.20
2018-04-07T21:19:00.122Z,25.03
2018-04-07T21:21:32.246Z,22.63
2018-04-07T21:27:14.404Z,26.87
2018-04-07T21:29:45.290Z,21.33
2018-04-07T21:32:25.952Z,22.53
2018-04-07T21:34:56.795Z,18.97
2018-04-07T21:37:29.723Z,25.27
2018-04-07T21:40:02.747Z,22.83
2018-04-07T21:42:34.934Z,25.93
2018-04-07T21:45:07.730Z,22.83
2018-04-07T21:47:39.968Z,26.50
2018-04-07T21:50:09.948Z,28.97
2018-04-07T21:52:41.508Z,26.80
2018-04-07T21:55:12.916Z,21.03
2018-04-07T21:57:43.433Z,20.03
2018-04-07T22:00:14.468Z,22.53
2018-04-07T22:02:47.151Z,22.73
2018-04-07T22:05:17.716Z,25.60
2018-04-07T22:07:55.302Z,26.73
2018-04-07T22:10:25.140Z,28.53
2018-04-07T22:12:58.858Z,22.23
2018-04-07T22:15:36.136Z,26.57
2018-04-07T22:18:07.979Z,28.63
2018-04-07T22:20:38.200Z,28.70
2018-04-07T22:23:12.096Z,27.50
2018-04-07T22:25:42.508Z,29.40
2018-04-07T22:28:13.338Z,27.60
2018-04-07T22:30:51.457Z,26.80
2018-04-07T22:33:27.144Z,25.80
2018-04-07T22:35:57.050Z,25.20
2018-04-07T22:38:27.096Z,23.93
2018-04-07T22:40:56.399Z,28.63
2018-04-07T22:43:28.684Z,32.70
2018-04-07T22:45:57.566Z,29.30
2018-04-07T22:48:26.868Z,36.90
2018-04-07T22:51:07.486Z,35.77
2018-04-07T22:53:37.470Z,39.90
2018-04-07T22:56:06.557Z,34.10
2018-04-07T22:58:39.044Z,36.20
2018-04-07T23:01:08.994Z,43.83
2018-04-07T23:03:38.980Z,42.20
2018-04-07T23:06:08.473Z,35.45
2018-04-07T23:08:38.037Z,36.13
2018-04-07T23:11:08.642Z,39.47
2018-04-07T23:13:37.257Z,33.60
2018-04-07T23:16:07.210Z,34.83
2018-04-07T23:18:37.170Z,35.65
2018-04-07T23:21:05.740Z,37.63
2018-04-07T23:23:36.907Z,35.23
2018-04-07T23:26:09.264Z,34.70
2018-04-07T23:28:38.787Z,34.67
2018-04-07T23:31:13.418Z,32.77
2018-04-07T23:33:43.687Z,38.67
2018-04-07T23:36:13.236Z,35.43
2018-04-07T23:38:43.997Z,53.20
2018-04-07T23:41:13.116Z,41.08
2018-04-07T23:43:44.115Z,47.55
2018-04-07T23:46:14.931Z,43.40
2018-04-07T23:48:45.080Z,43.17
2018-04-07T23:51:15.048Z,44.35
2018-04-07T23:53:44.961Z,38.50
2018-04-07T23:56:14.690Z,46.87
2018-04-07T23:58:46.779Z,46.08
